Time;durP1;ratioP1;P1;durP2;ratioP2;P2;SDS_P1;SDS_P2;PMS_P1;PMS_P2;Temp;Humidity;BMP_temperature;BMP_pressure;BME280_temperature;BME280_humidity;BME280_pressure;Samples;Min_cycle;Max_cycle;Signal;HPM_P1;HPM_P2
2021/12/18 00:02:16;;;;;;;1.35;1.25;;;3.10;99.90;;;;;;4956993;29;20031;-77
2021/12/18 00:04:42;;;;;;;0.63;0.63;;;3.10;99.90;;;;;;4956849;29;20399;-77
2021/12/18 00:07:09;;;;;;;0.17;0.17;;;3.10;99.90;;;;;;4957426;29;20043;-77
2021/12/18 00:09:35;;;;;;;0.73;0.47;;;3.00;99.90;;;;;;4956796;29;20038;-77
2021/12/18 00:12:02;;;;;;;0.20;0.20;;;3.00;99.90;;;;;;4957026;29;20030;-77
2021/12/18 00:14:28;;;;;;;0.70;0.70;;;3.00;99.90;;;;;;4956857;29;20031;-77
2021/12/18 00:16:54;;;;;;;0.68;0.68;;;3.00;99.90;;;;;;4939529;29;20031;-77
2021/12/18 00:19:26;;;;;;;0.55;0.55;;;2.90;99.90;;;;;;4956244;29;20462;-76
2021/12/18 00:21:53;;;;;;;2.67;1.13;;;2.90;99.90;;;;;;4956749;29;20027;-77
2021/12/18 00:24:19;;;;;;;0.98;0.80;;;2.90;99.90;;;;;;4956771;29;20034;-77
2021/12/18 00:26:46;;;;;;;1.35;1.23;;;2.90;99.90;;;;;;4939723;29;20443;-76
2021/12/18 00:29:11;;;;;;;0.20;0.20;;;2.90;99.90;;;;;;4939327;29;20422;-76
2021/12/18 00:31:37;;;;;;;0.10;0.10;;;2.80;99.90;;;;;;4956576;29;20027;-77
2021/12/18 00:34:03;;;;;;;0.00;0.00;;;2.80;99.90;;;;;;4956550;29;20505;-77
2021/12/18 00:36:28;;;;;;;3.10;1.52;;;2.80;99.90;;;;;;4956617;29;20493;-77
2021/12/18 00:38:54;;;;;;;1.02;0.50;;;2.80;99.90;;;;;;4956431;29;20074;-76
2021/12/18 00:41:48;;;;;;;0.55;0.55;;;2.80;99.90;;;;;;4956464;29;20521;-77
2021/12/18 00:44:16;;;;;;;0.30;0.30;;;2.80;99.90;;;;;;4956229;29;20534;-77
2021/12/18 00:46:43;;;;;;;1.15;1.05;;;2.80;99.90;;;;;;4948038;29;20447;-77
2021/12/18 00:49:12;;;;;;;0.13;0.13;;;2.80;99.90;;;;;;4936556;29;20395;-78
2021/12/18 00:51:38;;;;;;;0.63;0.63;;;2.80;99.90;;;;;;4937132;29;20082;-77
2021/12/18 00:54:04;;;;;;;1.17;0.75;;;2.80;99.90;;;;;;4935459;29;20396;-77
2021/12/18 00:56:30;;;;;;;3.10;1.23;;;2.70;99.90;;;;;;4950733;29;20031;-77
2021/12/18 00:58:56;;;;;;;0.03;0.03;;;2.80;99.90;;;;;;4956111;29;20034;-76
2021/12/18 01:01:25;;;;;;;0.32;0.32;;;2.80;99.90;;;;;;4957748;29;20023;-77
2021/12/18 01:03:52;;;;;;;0.00;0.00;;;2.70;99.90;;;;;;4958879;29;20027;-75
2021/12/18 01:06:21;;;;;;;0.32;0.32;;;2.80;99.90;;;;;;4959943;28;20054;-78
2021/12/18 01:08:52;;;;;;;0.35;0.35;;;2.80;99.90;;;;;;4958164;29;20093;-77
2021/12/18 01:11:39;;;;;;;0.70;0.70;;;2.80;99.90;;;;;;4939477;29;20035;-77
2021/12/18 01:16:58;;;;;;;0.68;0.68;;;2.80;99.90;;;;;;4955990;29;20065;-77
2021/12/18 01:24:53;;;;;;;1.25;0.80;;;2.90;99.90;;;;;;4955916;29;20035;-77
2021/12/18 01:27:19;;;;;;;1.08;1.08;;;2.90;99.90;;;;;;4974074;28;20494;-78
2021/12/18 01:29:45;;;;;;;0.30;0.30;;;2.80;99.90;;;;;;4974844;28;20043;-77
2021/12/18 01:32:11;;;;;;;0.40;0.40;;;2.80;99.90;;;;;;4957235;28;20517;-78
2021/12/18 01:34:38;;;;;;;0.63;0.60;;;2.90;99.90;;;;;;4974744;28;20050;-77
2021/12/18 01:37:04;;;;;;;0.45;0.45;;;2.90;99.90;;;;;;4974708;28;20062;-77
2021/12/18 01:39:30;;;;;;;1.52;0.75;;;2.90;99.90;;;;;;4974669;28;20031;-77
2021/12/18 01:45:12;;;;;;;1.10;0.85;;;2.90;99.90;;;;;;4974927;28;20042;-77
2021/12/18 01:52:56;;;;;;;0.40;0.40;;;2.80;99.90;;;;;;4974527;28;20517;-77
2021/12/18 01:55:31;;;;;;;1.45;1.27;;;2.80;99.90;;;;;;4955723;28;20097;-77
2021/12/18 01:57:57;;;;;;;0.82;0.82;;;2.80;99.90;;;;;;4974275;28;20023;-77
2021/12/18 02:00:38;;;;;;;0.28;0.28;;;2.80;99.90;;;;;;4974218;28;20042;-77
2021/12/18 02:03:04;;;;;;;1.75;0.63;;;2.80;99.90;;;;;;4974095;28;20070;-77
2021/12/18 02:05:30;;;;;;;0.13;0.13;;;2.70;99.90;;;;;;4974193;28;20034;-77
2021/12/18 02:07:56;;;;;;;1.88;1.05;;;2.70;99.90;;;;;;4973989;28;20035;-77
2021/12/18 02:10:26;;;;;;;0.65;0.65;;;2.70;99.90;;;;;;4956684;28;20035;-77
2021/12/18 02:20:55;;;;;;;0.65;0.63;;;2.70;99.90;;;;;;4935444;29;20065;-77
2021/12/18 02:23:21;;;;;;;0.40;0.40;;;2.70;99.90;;;;;;4935422;29;20085;-77
2021/12/18 02:25:48;;;;;;;0.30;0.30;;;2.70;99.90;;;;;;4948662;28;20027;-77
2021/12/18 02:28:18;;;;;;;2.63;1.05;;;2.60;99.90;;;;;;4973823;28;20055;-77
2021/12/18 02:30:46;;;;;;;0.95;0.55;;;2.60;99.90;;;;;;4973870;28;20549;-77
2021/12/18 02:33:12;;;;;;;0.50;0.50;;;2.60;99.90;;;;;;4973823;28;20022;-77
2021/12/18 02:35:45;;;;;;;0.50;0.50;;;2.60;99.90;;;;;;4973640;28;20023;-77
2021/12/18 02:38:17;;;;;;;0.93;0.85;;;2.50;99.90;;;;;;4973568;28;20035;-77
2021/12/18 02:43:18;;;;;;;1.23;1.10;;;2.50;99.90;;;;;;4973952;28;20526;-77
2021/12/18 02:45:44;;;;;;;1.58;1.13;;;2.50;99.90;;;;;;4973743;28;20033;-77
2021/12/18 02:48:10;;;;;;;0.55;0.55;;;2.50;99.90;;;;;;4973240;28;20102;-78
2021/12/18 02:50:39;;;;;;;0.55;0.45;;;2.50;99.90;;;;;;4973366;28;20434;-78
2021/12/18 02:53:06;;;;;;;1.60;0.88;;;2.50;99.90;;;;;;4973609;28;20537;-77
2021/12/18 02:55:32;;;;;;;2.75;1.52;;;2.40;99.90;;;;;;4954996;28;20027;-78
2021/12/18 02:57:57;;;;;;;0.30;0.30;;;2.50;99.90;;;;;;4954947;28;20154;-77
2021/12/18 03:00:25;;;;;;;0.68;0.68;;;2.40;99.90;;;;;;4953538;29;20027;-77
2021/12/18 03:02:51;;;;;;;0.10;0.10;;;2.40;99.90;;;;;;4936975;29;20031;-77
2021/12/18 03:05:24;;;;;;;1.55;1.05;;;2.40;99.90;;;;;;4954222;29;20035;-77
2021/12/18 03:07:56;;;;;;;;;;;2.40;99.90;;;;;;4954601;29;20042;-77
2021/12/18 03:26:55;;;;;;;0.40;0.40;;;2.30;99.90;;;;;;4891396;29;20060;-78
2021/12/18 03:29:21;;;;;;;1.73;1.08;;;2.30;99.90;;;;;;4895805;29;20075;-77
2021/12/18 03:31:46;;;;;;;0.40;0.40;;;2.30;99.90;;;;;;4898532;29;20111;-77
2021/12/18 03:34:12;;;;;;;0.90;0.55;;;2.30;99.90;;;;;;4898251;29;21589;-77
2021/12/18 03:36:38;;;;;;;0.90;0.90;;;2.30;99.90;;;;;;4898551;29;20029;-77
2021/12/18 03:39:04;;;;;;;12.18;1.23;;;2.20;99.90;;;;;;4898474;29;20423;-77
2021/12/18 03:41:30;;;;;;;0.30;0.30;;;2.20;99.90;;;;;;4898528;29;20041;-77
2021/12/18 03:43:55;;;;;;;0.90;0.35;;;2.20;99.90;;;;;;4898486;29;20032;-77
2021/12/18 03:46:21;;;;;;;0.00;0.00;;;2.20;99.90;;;;;;4898201;29;20032;-77
2021/12/18 03:48:47;;;;;;;0.00;0.00;;;2.30;99.90;;;;;;4897350;29;20049;-77
2021/12/18 03:51:12;;;;;;;0.13;0.13;;;2.30;99.90;;;;;;4898079;29;20416;-77
2021/12/18 03:53:38;;;;;;;0.15;0.15;;;2.30;99.90;;;;;;4898091;29;20502;-77
2021/12/18 03:56:05;;;;;;;0.55;0.28;;;2.30;99.90;;;;;;4880897;29;20120;-77
2021/12/18 03:58:30;;;;;;;0.70;0.65;;;2.30;99.90;;;;;;4898251;29;20056;-77
2021/12/18 04:00:57;;;;;;;0.28;0.28;;;2.30;99.90;;;;;;4939232;28;20471;-77
2021/12/18 04:03:22;;;;;;;0.75;0.75;;;2.30;99.90;;;;;;4958728;28;20026;-77
2021/12/18 04:05:49;;;;;;;1.20;0.75;;;2.30;99.90;;;;;;4976070;28;20041;-77
2021/12/18 04:08:14;;;;;;;1.25;1.10;;;2.30;99.90;;;;;;4976011;28;20019;-76
2021/12/18 04:10:41;;;;;;;0.75;0.73;;;2.40;99.90;;;;;;4957411;28;20034;-77
2021/12/18 04:13:08;;;;;;;0.00;0.00;;;2.30;99.90;;;;;;4975870;28;20055;-78
2021/12/18 04:15:36;;;;;;;0.80;0.80;;;2.30;99.90;;;;;;4958732;28;20054;-77
2021/12/18 04:18:02;;;;;;;0.68;0.68;;;2.30;99.90;;;;;;4976027;28;20482;-77
2021/12/18 04:20:28;;;;;;;0.00;0.00;;;2.40;99.90;;;;;;4975794;28;20054;-77
2021/12/18 04:22:54;;;;;;;0.25;0.25;;;2.40;99.90;;;;;;4976207;28;20034;-77
2021/12/18 04:25:20;;;;;;;1.30;0.70;;;2.40;99.90;;;;;;4973018;28;20035;-77
2021/12/18 04:27:46;;;;;;;0.75;0.75;;;2.50;99.90;;;;;;4956756;29;20028;-77
2021/12/18 04:30:13;;;;;;;0.40;0.40;;;2.50;99.90;;;;;;4956414;29;20038;-77
2021/12/18 04:32:39;;;;;;;0.50;0.50;;;2.50;99.90;;;;;;4956222;29;20019;-77
2021/12/18 04:35:05;;;;;;;0.50;0.40;;;2.50;99.90;;;;;;4956437;29;20020;-78
2021/12/18 04:37:31;;;;;;;1.58;0.85;;;2.40;99.90;;;;;;4956576;29;20042;-77
2021/12/18 04:39:57;;;;;;;0.70;0.70;;;2.50;99.90;;;;;;4956447;29;20039;-77
2021/12/18 04:42:22;;;;;;;0.98;0.98;;;2.40;99.90;;;;;;4938521;29;20042;-77
2021/12/18 04:44:48;;;;;;;0.10;0.10;;;2.40;99.90;;;;;;4956484;29;20035;-77
2021/12/18 04:47:14;;;;;;;3.03;0.60;;;2.40;99.90;;;;;;4968043;28;20026;-77
2021/12/18 04:49:40;;;;;;;1.35;1.08;;;2.30;99.90;;;;;;4975045;28;20050;-77
2021/12/18 04:52:06;;;;;;;3.22;0.38;;;2.30;99.90;;;;;;4975348;28;20065;-77
2021/12/18 04:54:32;;;;;;;0.50;0.50;;;2.30;99.90;;;;;;4975494;28;20058;-77
2021/12/18 04:56:58;;;;;;;0.47;0.47;;;2.30;99.90;;;;;;4963007;28;20473;-77
2021/12/18 04:59:23;;;;;;;0.17;0.17;;;2.40;99.90;;;;;;4956050;29;20483;-77
2021/12/18 05:01:51;;;;;;;2.92;1.48;;;2.40;99.90;;;;;;4938762;29;20490;-77
2021/12/18 05:04:17;;;;;;;1.20;1.20;;;2.40;99.90;;;;;;4937940;29;20640;-77
2021/12/18 05:06:46;;;;;;;0.65;0.47;;;2.40;99.90;;;;;;4956340;29;20027;-77
2021/12/18 05:09:14;;;;;;;0.52;0.52;;;2.50;99.90;;;;;;4938504;29;20118;-77
2021/12/18 05:11:41;;;;;;;0.75;0.75;;;2.40;99.90;;;;;;4955951;29;20030;-72
2021/12/18 05:14:08;;;;;;;5.32;0.75;;;2.50;99.90;;;;;;4955832;29;20027;-77
2021/12/18 05:16:34;;;;;;;0.70;0.70;;;2.50;99.90;;;;;;4955700;29;20035;-77
2021/12/18 05:19:00;;;;;;;0.50;0.50;;;2.50;99.90;;;;;;4955231;29;20526;-77
2021/12/18 05:21:26;;;;;;;0.32;0.32;;;2.50;99.90;;;;;;4955610;29;20028;-77
2021/12/18 05:23:52;;;;;;;1.25;0.65;;;2.40;99.90;;;;;;4955962;29;20032;-77
2021/12/18 05:26:18;;;;;;;0.95;0.95;;;2.40;99.90;;;;;;4966065;28;20034;-77
2021/12/18 05:28:44;;;;;;;0.40;0.40;;;2.30;99.90;;;;;;4957461;28;20494;-77
2021/12/18 05:31:12;;;;;;;0.80;0.80;;;2.30;99.90;;;;;;4974781;28;20395;-78
2021/12/18 05:33:38;;;;;;;0.45;0.40;;;2.20;99.90;;;;;;4957376;28;20031;-77
2021/12/18 05:36:23;;;;;;;0.63;0.28;;;2.20;99.90;;;;;;4974544;28;20082;-77
2021/12/18 05:38:49;;;;;;;1.27;1.25;;;2.20;99.90;;;;;;4974699;28;20445;-76
2021/12/18 05:41:14;;;;;;;0.60;0.60;;;2.20;99.90;;;;;;4974735;28;20027;-77
2021/12/18 05:43:40;;;;;;;2.53;1.08;;;2.20;99.90;;;;;;4974557;28;20027;-77
2021/12/18 05:46:05;;;;;;;1.60;0.50;;;2.20;99.90;;;;;;4956833;28;20026;-77
2021/12/18 05:48:31;;;;;;;0.10;0.10;;;2.20;99.90;;;;;;4974179;28;20034;-78
2021/12/18 05:50:57;;;;;;;0.50;0.50;;;2.20;99.90;;;;;;4974429;28;20022;-77
2021/12/18 05:53:22;;;;;;;0.00;0.00;;;2.20;99.90;;;;;;4956131;28;20185;-77
2021/12/18 05:55:48;;;;;;;0.20;0.20;;;2.20;99.90;;;;;;4974491;28;20027;-76
2021/12/18 05:58:13;;;;;;;0.93;0.93;;;2.30;99.90;;;;;;4972376;28;20034;-77
2021/12/18 06:00:39;;;;;;;0.73;0.50;;;2.30;99.90;;;;;;4974392;28;20029;-77
2021/12/18 06:03:05;;;;;;;1.65;0.90;;;2.30;99.90;;;;;;4974055;28;20110;-78
2021/12/18 06:05:30;;;;;;;0.70;0.55;;;2.20;99.90;;;;;;4974209;28;20035;-77
2021/12/18 06:07:58;;;;;;;2.95;1.90;;;2.20;99.90;;;;;;4974281;28;20042;-78
2021/12/18 06:10:28;;;;;;;0.20;0.20;;;2.20;99.90;;;;;;4973954;28;20368;-77
2021/12/18 06:12:57;;;;;;;2.15;0.50;;;2.20;99.90;;;;;;4974199;28;20030;-76
2021/12/18 06:15:23;;;;;;;0.50;0.50;;;2.20;99.90;;;;;;4974142;28;20030;-77
2021/12/18 06:17:48;;;;;;;0.57;0.55;;;2.20;99.90;;;;;;4973729;28;20023;-76
2021/12/18 06:20:14;;;;;;;0.55;0.55;;;2.20;99.90;;;;;;4973693;28;20414;-77
2021/12/18 06:22:40;;;;;;;1.35;1.25;;;2.30;99.90;;;;;;4974093;28;20303;-77
2021/12/18 06:25:06;;;;;;;0.43;0.43;;;2.30;99.90;;;;;;4973188;28;20034;-77
2021/12/18 06:27:32;;;;;;;2.03;0.80;;;2.30;99.90;;;;;;4954591;29;20035;-77
2021/12/18 06:29:58;;;;;;;0.60;0.55;;;2.20;99.90;;;;;;4953962;29;20410;-77
2021/12/18 06:32:24;;;;;;;0.65;0.65;;;2.20;99.90;;;;;;4954365;29;20124;-78
2021/12/18 06:34:50;;;;;;;0.63;0.63;;;2.20;99.90;;;;;;4954452;29;20027;-79
2021/12/18 06:37:15;;;;;;;1.20;0.80;;;2.20;99.90;;;;;;4954476;29;20034;-78
2021/12/18 06:39:41;;;;;;;0.17;0.17;;;2.20;99.90;;;;;;4954538;29;20042;-77
2021/12/18 06:42:07;;;;;;;1.80;1.20;;;2.10;99.90;;;;;;4954531;29;20059;-77
2021/12/18 06:44:33;;;;;;;0.45;0.45;;;2.10;99.90;;;;;;4954593;29;20070;-77
2021/12/18 06:46:58;;;;;;;0.22;0.22;;;2.20;99.90;;;;;;4964244;28;20027;-77
2021/12/18 06:49:24;;;;;;;0.70;0.55;;;2.20;99.90;;;;;;4973156;28;20102;-77
2021/12/18 06:51:50;;;;;;;0.63;0.63;;;2.30;99.90;;;;;;4973657;28;20029;-77
2021/12/18 06:54:15;;;;;;;1.17;0.63;;;2.30;99.90;;;;;;4973596;28;20026;-77
2021/12/18 06:56:41;;;;;;;1.15;0.95;;;2.30;99.90;;;;;;4973733;28;20050;-77
2021/12/18 06:59:06;;;;;;;0.52;0.38;;;2.30;99.90;;;;;;4953114;28;20080;-77
2021/12/18 07:01:32;;;;;;;0.35;0.35;;;2.20;99.90;;;;;;4954321;29;20022;-77
2021/12/18 07:03:58;;;;;;;0.52;0.50;;;2.20;99.90;;;;;;4954378;28;20518;-76
2021/12/18 07:06:24;;;;;;;0.30;0.30;;;2.30;99.90;;;;;;4958423;29;20078;-77
2021/12/18 07:08:50;;;;;;;0.30;0.30;;;2.20;99.90;;;;;;4958045;29;20122;-77
2021/12/18 07:11:16;;;;;;;1.10;1.10;;;2.20;99.90;;;;;;4956519;29;20537;-77
2021/12/18 07:13:42;;;;;;;0.22;0.22;;;2.30;99.90;;;;;;4958120;29;20027;-77
2021/12/18 07:16:08;;;;;;;0.25;0.25;;;2.30;99.90;;;;;;4957946;29;20032;-77
2021/12/18 07:18:34;;;;;;;0.88;0.88;;;2.30;99.90;;;;;;4957610;29;20047;-76
2021/12/18 07:20:59;;;;;;;1.40;1.02;;;2.30;99.90;;;;;;4957749;29;20035;-77
2021/12/18 07:23:25;;;;;;;1.27;0.85;;;2.40;99.90;;;;;;4957844;29;20031;-77
2021/12/18 07:25:51;;;;;;;0.95;0.85;;;2.40;99.90;;;;;;4947406;28;20027;-77
2021/12/18 07:28:17;;;;;;;1.20;1.10;;;2.50;99.90;;;;;;4977054;28;20158;-77
2021/12/18 07:30:42;;;;;;;0.85;0.85;;;2.50;99.90;;;;;;4977207;28;20474;-77
2021/12/18 07:33:11;;;;;;;1.20;0.63;;;2.60;99.90;;;;;;4959396;28;20030;-77
2021/12/18 07:35:40;;;;;;;0.80;0.80;;;2.60;99.90;;;;;;4977487;28;20101;-77
2021/12/18 07:38:07;;;;;;;0.15;0.15;;;2.60;99.90;;;;;;4978591;28;20030;-77
2021/12/18 07:40:33;;;;;;;0.75;0.75;;;2.60;99.90;;;;;;4978549;28;20031;-77
2021/12/18 07:42:59;;;;;;;0.15;0.15;;;2.50;99.90;;;;;;4979882;28;20030;-76
2021/12/18 07:45:25;;;;;;;0.10;0.10;;;2.50;99.90;;;;;;4980086;28;20034;-77
2021/12/18 07:47:51;;;;;;;6.20;1.80;;;2.50;99.90;;;;;;4978845;28;20023;-77
2021/12/18 07:50:20;;;;;;;0.38;0.38;;;2.50;99.90;;;;;;4977847;28;20028;-77
2021/12/18 07:52:49;;;;;;;2.55;1.52;;;2.40;99.90;;;;;;4976278;28;20023;-77
2021/12/18 07:55:16;;;;;;;1.83;1.30;;;2.40;99.90;;;;;;4976447;28;20021;-77
2021/12/18 07:57:42;;;;;;;0.32;0.32;;;2.40;99.90;;;;;;4959622;28;20028;-77
2021/12/18 08:00:11;;;;;;;1.83;1.73;;;2.30;99.90;;;;;;4938551;29;20038;-77
2021/12/18 08:02:37;;;;;;;1.90;1.33;;;2.30;99.90;;;;;;4956987;29;20026;-77
2021/12/18 08:05:04;;;;;;;20.42;3.33;;;2.30;99.90;;;;;;4956860;29;20114;-77
2021/12/18 08:07:29;;;;;;;0.20;0.20;;;2.30;99.90;;;;;;4939847;29;20108;-77
2021/12/18 08:09:55;;;;;;;0.63;0.63;;;2.30;99.90;;;;;;4939542;29;20031;-77
2021/12/18 08:12:20;;;;;;;0.77;0.77;;;2.30;99.90;;;;;;4939746;29;20031;-77
2021/12/18 08:14:46;;;;;;;0.40;0.40;;;2.40;99.90;;;;;;4957057;29;20031;-77
2021/12/18 08:17:12;;;;;;;2.40;1.38;;;2.40;99.90;;;;;;4955797;28;20031;-77
2021/12/18 08:19:37;;;;;;;0.45;0.45;;;2.40;99.90;;;;;;4956313;29;20067;-77
2021/12/18 08:22:03;;;;;;;0.52;0.52;;;2.50;99.90;;;;;;4939433;29;20486;-77
2021/12/18 08:24:29;;;;;;;1.25;0.55;;;2.50;99.90;;;;;;4956828;29;20096;-77
2021/12/18 08:26:55;;;;;;;0.80;0.80;;;2.60;99.90;;;;;;4971582;28;20044;-77
2021/12/18 08:29:21;;;;;;;5.57;0.68;;;2.60;99.90;;;;;;4975969;28;20027;-77
2021/12/18 08:31:47;;;;;;;0.43;0.43;;;2.60;99.90;;;;;;4975985;28;20023;-77
2021/12/18 08:34:12;;;;;;;0.30;0.30;;;2.60;99.90;;;;;;4975690;28;20027;-76
2021/12/18 08:36:38;;;;;;;1.95;1.40;;;2.70;99.90;;;;;;4975970;28;20490;-77
2021/12/18 08:39:04;;;;;;;0.22;0.22;;;2.70;99.90;;;;;;4975672;28;20442;-77
2021/12/18 08:41:30;;;;;;;1.27;0.93;;;2.80;99.90;;;;;;4958499;28;20058;-77
2021/12/18 08:43:55;;;;;;;1.35;0.65;;;2.90;99.90;;;;;;4975741;28;20030;-77
2021/12/18 08:46:21;;;;;;;0.68;0.68;;;2.90;99.90;;;;;;4970698;28;20031;-77
2021/12/18 08:48:47;;;;;;;1.58;1.30;;;3.00;99.90;;;;;;4955956;29;20239;-77
2021/12/18 08:51:13;;;;;;;1.98;1.83;;;3.10;99.90;;;;;;4956246;29;20027;-73
2021/12/18 08:53:38;;;;;;;1.17;0.50;;;3.10;99.90;;;;;;4956173;29;20103;-77
2021/12/18 08:56:04;;;;;;;5.15;1.15;;;3.20;99.90;;;;;;4956101;29;20023;-78
2021/12/18 08:58:30;;;;;;;0.60;0.60;;;3.20;99.90;;;;;;4954672;28;20157;-78
2021/12/18 09:00:56;;;;;;;4.75;0.90;;;3.30;99.90;;;;;;4956229;29;20027;-77
2021/12/18 09:03:22;;;;;;;1.80;1.33;;;3.40;99.90;;;;;;4955870;29;20042;-77
2021/12/18 09:05:48;;;;;;;2.80;1.30;;;3.50;99.90;;;;;;4955507;29;20038;-77
2021/12/18 09:08:14;;;;;;;0.88;0.77;;;3.50;99.90;;;;;;4938511;29;20418;-76
2021/12/18 09:10:40;;;;;;;0.30;0.30;;;3.60;99.90;;;;;;4938742;29;20019;-77
2021/12/18 09:13:06;;;;;;;0.30;0.30;;;3.70;99.90;;;;;;4955906;29;20031;-77
2021/12/18 09:15:31;;;;;;;0.22;0.22;;;3.80;99.90;;;;;;4955922;29;20098;-77
2021/12/18 09:17:57;;;;;;;0.90;0.90;;;3.80;99.90;;;;;;4955207;29;20530;-77
2021/12/18 09:20:23;;;;;;;0.35;0.35;;;3.90;99.90;;;;;;4954738;29;20570;-77
2021/12/18 09:22:49;;;;;;;0.22;0.22;;;4.00;99.90;;;;;;4955522;29;20038;-77
2021/12/18 09:25:15;;;;;;;0.45;0.45;;;4.10;99.90;;;;;;4940480;28;20027;-77
2021/12/18 09:27:40;;;;;;;0.35;0.35;;;4.20;99.90;;;;;;4974828;28;20482;-77
2021/12/18 09:30:10;;;;;;;0.28;0.28;;;4.20;99.90;;;;;;4974771;28;20018;-77
2021/12/18 09:32:37;;;;;;;0.65;0.60;;;4.20;99.90;;;;;;4974751;28;20425;-78
2021/12/18 09:35:04;;;;;;;0.50;0.50;;;4.20;99.90;;;;;;4940436;28;20019;-77
2021/12/18 09:37:30;;;;;;;1.10;0.85;;;4.30;99.90;;;;;;4936324;29;20138;-77
2021/12/18 09:39:56;;;;;;;1.20;0.80;;;4.40;99.90;;;;;;4936048;29;20066;-77
2021/12/18 09:42:22;;;;;;;0.38;0.38;;;4.40;99.90;;;;;;4936244;29;20027;-77
2021/12/18 09:44:50;;;;;;;1.00;1.00;;;4.40;99.90;;;;;;4919103;29;20035;-77
2021/12/18 09:47:16;;;;;;;0.22;0.22;;;4.40;99.90;;;;;;4947893;29;20027;-77
2021/12/18 09:49:42;;;;;;;4.57;1.45;;;4.50;99.90;;;;;;4954638;29;20439;-77
2021/12/18 09:52:07;;;;;;;0.57;0.57;;;4.60;99.90;;;;;;4955626;29;20070;-77
2021/12/18 09:54:33;;;;;;;2.70;1.42;;;4.70;99.90;;;;;;4955156;29;20034;-77
2021/12/18 09:56:59;;;;;;;1.58;1.35;;;4.70;99.90;;;;;;4955091;29;20027;-77
2021/12/18 09:59:24;;;;;;;0.73;0.73;;;4.80;99.90;;;;;;4953195;29;20031;-77
2021/12/18 10:01:50;;;;;;;4.25;2.58;;;4.80;99.90;;;;;;4954900;29;20027;-77
2021/12/18 10:04:48;;;;;;;3.83;1.02;;;4.90;99.90;;;;;;4954688;29;20031;-77
2021/12/18 10:07:20;;;;;;;2.13;1.50;;;4.90;99.90;;;;;;4933126;29;20055;-78
2021/12/18 10:09:47;;;;;;;0.68;0.68;;;4.90;99.90;;;;;;4954733;29;20391;-77
2021/12/18 10:12:24;;;;;;;0.15;0.15;;;5.00;99.90;;;;;;4952967;29;20034;-77
2021/12/18 10:14:56;;;;;;;1.08;1.02;;;5.10;99.90;;;;;;4937546;29;20027;-77
2021/12/18 10:17:35;;;;;;;0.45;0.45;;;5.20;99.90;;;;;;4954517;29;20205;-77
2021/12/18 10:20:10;;;;;;;0.20;0.20;;;5.30;99.90;;;;;;4936979;29;20062;-77
2021/12/18 10:22:49;;;;;;;0.43;0.43;;;5.30;99.90;;;;;;4954712;29;20035;-77
2021/12/18 10:25:21;;;;;;;0.55;0.55;;;5.40;99.90;;;;;;4956761;28;20495;-77
2021/12/18 10:28:08;;;;;;;6.43;1.42;;;5.50;99.90;;;;;;4973867;28;20058;-77
2021/12/18 10:30:35;;;;;;;0.75;0.75;;;5.50;99.90;;;;;;4973958;28;20461;-77
2021/12/18 10:33:11;;;;;;;0.13;0.13;;;5.50;99.90;;;;;;4956524;28;20030;-77
2021/12/18 10:35:38;;;;;;;0.30;0.30;;;5.70;99.90;;;;;;4973649;28;20015;-77
2021/12/18 10:38:04;;;;;;;1.45;0.70;;;5.80;99.90;;;;;;4973636;28;20041;-77
2021/12/18 10:40:44;;;;;;;0.35;0.35;;;5.90;99.90;;;;;;4973352;28;20027;-77
2021/12/18 10:43:10;;;;;;;0.60;0.50;;;5.90;99.90;;;;;;4973857;28;20031;-77
2021/12/18 10:45:36;;;;;;;3.00;0.95;;;6.10;99.90;;;;;;4956226;28;20019;-77
2021/12/18 10:48:08;;;;;;;0.52;0.52;;;6.20;99.90;;;;;;4973119;28;20031;-79
2021/12/18 10:50:39;;;;;;;0.00;0.00;;;6.40;99.90;;;;;;4973648;28;20054;-77
2021/12/18 10:53:19;;;;;;;2.75;1.15;;;6.40;99.90;;;;;;4973699;28;20474;-77
2021/12/18 10:55:58;;;;;;;0.35;0.35;;;6.50;99.90;;;;;;4973564;28;20026;-77
2021/12/18 10:58:36;;;;;;;0.98;0.85;;;6.70;99.90;;;;;;4973713;28;20026;-78
2021/12/18 11:01:04;;;;;;;0.32;0.32;;;6.80;99.90;;;;;;4972503;28;20030;-77
2021/12/18 11:03:36;;;;;;;2.50;2.13;;;6.80;99.90;;;;;;4955973;28;20031;-77
2021/12/18 11:06:01;;;;;;;2.85;1.33;;;6.90;99.90;;;;;;4973627;28;20031;-77
2021/12/18 11:08:27;;;;;;;2.20;0.22;;;7.00;99.90;;;;;;4956133;28;20118;-77
2021/12/18 11:13:52;;;;;;;2.30;1.35;;;7.40;99.90;;;;;;4973636;28;20042;-77
2021/12/18 11:16:19;;;;;;;0.80;0.80;;;7.60;99.90;;;;;;4973383;28;20102;-78
2021/12/18 11:18:46;;;;;;;0.17;0.17;;;7.70;99.90;;;;;;4955765;28;20039;-77
2021/12/18 11:21:13;;;;;;;0.85;0.82;;;7.80;99.90;;;;;;4955893;28;20416;-77
2021/12/18 11:24:06;;;;;;;1.52;0.70;;;7.90;99.90;;;;;;4956135;28;20149;-77
2021/12/18 11:26:41;;;;;;;3.53;0.65;;;8.00;99.90;;;;;;4973438;28;20035;-77
2021/12/18 11:29:40;;;;;;;0.95;0.95;;;8.20;99.90;;;;;;4973440;28;20166;-78
2021/12/18 11:32:08;;;;;;;0.38;0.38;;;8.30;99.90;;;;;;4964686;28;20034;-77
2021/12/18 11:34:35;;;;;;;1.15;0.75;;;8.40;99.90;;;;;;4973035;28;20030;-77
2021/12/18 11:37:05;;;;;;;1.65;1.55;;;8.60;99.90;;;;;;4973325;28;20022;-78
2021/12/18 11:39:31;;;;;;;2.67;1.02;;;8.70;99.90;;;;;;4973322;28;20038;-77
2021/12/18 11:41:57;;;;;;;0.00;0.00;;;8.80;99.90;;;;;;4973383;28;20035;-78
2021/12/18 11:44:33;;;;;;;0.15;0.15;;;9.00;99.90;;;;;;4955891;28;20027;-77
2021/12/18 11:47:20;;;;;;;0.65;0.38;;;9.20;99.90;;;;;;4955673;28;20037;-77
2021/12/18 11:49:45;;;;;;;1.85;0.70;;;9.30;99.90;;;;;;4972834;28;20030;-77
2021/12/18 11:52:11;;;;;;;0.20;0.20;;;9.40;99.90;;;;;;4974682;28;20031;-77
2021/12/18 11:54:49;;;;;;;0.90;0.75;;;9.60;99.90;;;;;;4959285;28;20027;-78
2021/12/18 11:57:42;;;;;;;0.73;0.73;;;9.70;99.90;;;;;;4976576;28;20027;-77
2021/12/18 12:00:47;;;;;;;0.63;0.35;;;9.80;99.90;;;;;;4976574;28;20038;-77
2021/12/18 12:03:40;;;;;;;0.45;0.45;;;10.00;99.90;;;;;;4940117;28;20042;-77
2021/12/18 12:06:36;;;;;;;0.95;0.55;;;10.20;99.90;;;;;;4964219;28;20483;-77
2021/12/18 12:09:35;;;;;;;0.17;0.17;;;10.30;99.90;;;;;;4976271;28;20557;-76
2021/12/18 12:12:09;;;;;;;1.02;0.60;;;10.30;99.90;;;;;;4976332;28;20031;-77
2021/12/18 12:14:40;;;;;;;0.85;0.55;;;10.30;99.90;;;;;;4960958;28;20061;-77
2021/12/18 12:17:10;;;;;;;0.10;0.10;;;10.20;99.90;;;;;;4956495;29;20398;-77
2021/12/18 12:19:36;;;;;;;0.85;0.70;;;10.30;99.90;;;;;;4956465;29;20051;-77
2021/12/18 12:22:04;;;;;;;0.25;0.25;;;10.50;99.90;;;;;;4956812;29;20054;-76
2021/12/18 12:24:50;;;;;;;0.17;0.17;;;10.50;99.90;;;;;;4939688;29;20047;-77
2021/12/18 12:27:24;;;;;;;0.70;0.70;;;10.70;99.90;;;;;;4974719;28;20022;-77
2021/12/18 12:29:51;;;;;;;0.25;0.25;;;10.60;99.90;;;;;;4976152;28;20431;-77
2021/12/18 12:32:20;;;;;;;4.47;0.43;;;10.80;99.90;;;;;;4976030;28;20037;-73
2021/12/18 12:34:58;;;;;;;0.10;0.10;;;10.90;99.90;;;;;;4975880;28;20019;-77
2021/12/18 12:37:24;;;;;;;0.00;0.00;;;10.90;99.90;;;;;;4958893;28;20527;-77
2021/12/18 12:39:59;;;;;;;0.35;0.35;;;10.90;99.90;;;;;;4975863;28;20031;-77
2021/12/18 12:42:25;;;;;;;1.35;0.68;;;11.00;99.90;;;;;;4958628;28;20398;-78
2021/12/18 12:45:05;;;;;;;0.32;0.10;;;11.10;99.90;;;;;;4975814;28;20037;-77
2021/12/18 12:47:31;;;;;;;0.10;0.00;;;11.20;99.90;;;;;;4961380;28;20059;-77
2021/12/18 12:50:00;;;;;;;2.72;0.50;;;11.20;99.90;;;;;;4955724;29;20416;-77
2021/12/18 12:52:28;;;;;;;2.47;0.93;;;11.20;99.90;;;;;;4938495;29;20019;-78
2021/12/18 12:54:58;;;;;;;0.20;0.20;;;11.20;99.90;;;;;;4956489;29;20475;-77
2021/12/18 12:57:24;;;;;;;0.20;0.13;;;11.30;99.90;;;;;;4970379;28;20033;-77
2021/12/18 12:59:51;;;;;;;3.40;1.75;;;11.30;99.90;;;;;;4975405;28;20022;-77
2021/12/18 13:02:17;;;;;;;0.10;0.10;;;11.30;99.90;;;;;;4973742;28;20070;-77
2021/12/18 13:04:43;;;;;;;0.15;0.15;;;11.30;99.90;;;;;;4957718;28;20031;-77
2021/12/18 13:07:09;;;;;;;1.73;0.47;;;11.20;99.90;;;;;;4957935;28;20482;-77
2021/12/18 13:09:43;;;;;;;1.52;0.13;;;11.40;99.90;;;;;;4975127;28;20126;-78
2021/12/18 13:12:09;;;;;;;2.22;1.30;;;11.40;99.90;;;;;;4974102;28;20042;-73
2021/12/18 13:14:37;;;;;;;5.93;1.13;;;11.50;99.90;;;;;;4960263;28;20471;-77
2021/12/18 13:17:25;;;;;;;0.15;0.15;;;11.50;99.90;;;;;;4955783;29;20051;-77
2021/12/18 13:19:55;;;;;;;0.10;0.10;;;11.50;99.90;;;;;;4955355;29;20531;-77
2021/12/18 13:22:25;;;;;;;2.13;1.23;;;11.60;99.90;;;;;;4955709;29;20521;-77
2021/12/18 13:25:01;;;;;;;0.10;0.10;;;11.60;99.90;;;;;;4955709;29;20082;-77
2021/12/18 13:27:26;;;;;;;0.80;0.80;;;11.70;99.90;;;;;;4936552;29;20102;-77
2021/12/18 13:30:12;;;;;;;2.10;1.13;;;11.70;99.90;;;;;;4935787;29;20554;-77
2021/12/18 13:32:59;;;;;;;0.40;0.30;;;11.90;99.90;;;;;;4919342;29;20031;-77
2021/12/18 13:35:28;;;;;;;0.00;0.00;;;12.10;99.90;;;;;;4936176;29;20027;-77
2021/12/18 13:38:02;;;;;;;2.28;0.77;;;12.30;99.90;;;;;;4936169;29;20108;-78
2021/12/18 13:40:34;;;;;;;1.75;1.00;;;12.30;99.90;;;;;;4936413;29;20075;-77
2021/12/18 13:43:10;;;;;;;0.45;0.43;;;12.20;99.90;;;;;;4936250;29;20061;-76
2021/12/18 13:46:02;;;;;;;0.10;0.10;;;12.20;99.90;;;;;;4936260;29;20032;-77
2021/12/18 13:48:38;;;;;;;5.78;0.75;;;12.00;99.90;;;;;;4935969;29;20472;-77
2021/12/18 13:51:11;;;;;;;1.58;1.48;;;11.90;99.90;;;;;;4935897;29;20083;-73